Aviation Digital Data Service (ADDS)

Output produced by METARs form (0340 UTC 25 June 2017)
found at http://www.aviationweather.gov/adds/metars/
 
KPHL 242332Z 2500/2606 26010KT P6SM FEW250 
     FM251000 29004KT P6SM FEW130 
     FM251700 28010G18KT P6SM SCT250 
     FM252300 25009KT P6SM FEW250